Qena, Egypt
Current Conditions -  °F | °C
As of 8:00 PM on Friday 19 Dec 2014 (Local Time) from HELX Reporting Station
Clear Clear  
Wind Chill: 20°   Ceiling: Unl
Heat Index: 20°   Visibility: 6mi
Dew Point: 12°   Wind: 2mph
Humidity: 60%   Direction: 240°WSW
Pressure: 30"   Gusts: NA
Location:  26.15°N, 32.72°E
Report Text: HELX 191800Z 24002KT CAVOK 20/12 Q1016 NOSIG
Loading
Personal Weather Stations






























Interactive Weather Map New forecast layout! Learn more

10-Day Weather Forecast

Advertisements
Track Severe Weather on mobile